sensor_id;sensor_type;location;lat;lon;timestamp;temperature;humidity
31809;DHT22;18379;48.208;-1.518;2023-10-09T00:04:59;16.40;99.90
31809;DHT22;18379;48.208;-1.518;2023-10-09T00:10:02;16.20;99.90
31809;DHT22;18379;48.208;-1.518;2023-10-09T00:15:13;16.10;99.90
31809;DHT22;18379;48.208;-1.518;2023-10-09T00:20:14;15.80;99.90
31809;DHT22;18379;48.208;-1.518;2023-10-09T00:25:25;15.80;99.90
31809;DHT22;18379;48.208;-1.518;2023-10-09T00:30:30;15.80;99.90
31809;DHT22;18379;48.208;-1.518;2023-10-09T00:35:31;15.70;99.90
31809;DHT22;18379;48.208;-1.518;2023-10-09T00:40:44;15.60;99.90
31809;DHT22;18379;48.208;-1.518;2023-10-09T00:45:48;15.50;99.90
31809;DHT22;18379;48.208;-1.518;2023-10-09T00:50:51;15.30;99.90
31809;DHT22;18379;48.208;-1.518;2023-10-09T00:55:56;15.40;99.90
31809;DHT22;18379;48.208;-1.518;2023-10-09T01:00:57;15.50;99.90
31809;DHT22;18379;48.208;-1.518;2023-10-09T01:06:01;15.50;99.90
31809;DHT22;18379;48.208;-1.518;2023-10-09T01:11:13;15.30;99.90
31809;DHT22;18379;48.208;-1.518;2023-10-09T01:16:24;15.20;99.90
31809;DHT22;18379;48.208;-1.518;2023-10-09T01:21:25;14.90;99.90
31809;DHT22;18379;48.208;-1.518;2023-10-09T01:26:27;14.90;99.90
31809;DHT22;18379;48.208;-1.518;2023-10-09T01:31:32;14.80;99.90
31809;DHT22;18379;48.208;-1.518;2023-10-09T01:36:38;14.70;99.90
31809;DHT22;18379;48.208;-1.518;2023-10-09T01:41:40;14.60;99.90
31809;DHT22;18379;48.208;-1.518;2023-10-09T01:46:47;14.60;99.90
31809;DHT22;18379;48.208;-1.518;2023-10-09T01:51:48;14.60;99.90
31809;DHT22;18379;48.208;-1.518;2023-10-09T01:56:50;14.70;99.90
31809;DHT22;18379;48.208;-1.518;2023-10-09T02:01:54;14.80;99.90
31809;DHT22;18379;48.208;-1.518;2023-10-09T02:06:58;14.80;99.90
31809;DHT22;18379;48.208;-1.518;2023-10-09T02:12:00;14.80;99.90
31809;DHT22;18379;48.208;-1.518;2023-10-09T02:17:01;14.70;99.90
31809;DHT22;18379;48.208;-1.518;2023-10-09T02:22:20;14.80;99.90
31809;DHT22;18379;48.208;-1.518;2023-10-09T02:27:26;14.60;99.90
31809;DHT22;18379;48.208;-1.518;2023-10-09T02:32:54;14.50;99.90
31809;DHT22;18379;48.208;-1.518;2023-10-09T02:38:07;14.40;99.90
31809;DHT22;18379;48.208;-1.518;2023-10-09T02:43:08;14.30;99.90
31809;DHT22;18379;48.208;-1.518;2023-10-09T02:48:18;14.20;99.90
31809;DHT22;18379;48.208;-1.518;2023-10-09T02:53:26;14.10;99.90
31809;DHT22;18379;48.208;-1.518;2023-10-09T02:58:30;14.00;99.90
31809;DHT22;18379;48.208;-1.518;2023-10-09T03:03:33;14.20;99.90
31809;DHT22;18379;48.208;-1.518;2023-10-09T03:08:36;14.30;99.90
31809;DHT22;18379;48.208;-1.518;2023-10-09T03:13:37;14.30;99.90
31809;DHT22;18379;48.208;-1.518;2023-10-09T03:18:38;14.50;99.90
31809;DHT22;18379;48.208;-1.518;2023-10-09T03:23:38;14.40;99.90
31809;DHT22;18379;48.208;-1.518;2023-10-09T03:28:39;14.50;99.90
31809;DHT22;18379;48.208;-1.518;2023-10-09T03:33:40;14.30;99.90
31809;DHT22;18379;48.208;-1.518;2023-10-09T03:38:41;14.30;99.90
31809;DHT22;18379;48.208;-1.518;2023-10-09T03:43:43;14.20;99.90
31809;DHT22;18379;48.208;-1.518;2023-10-09T03:48:49;14.00;99.90
31809;DHT22;18379;48.208;-1.518;2023-10-09T03:53:52;13.90;99.90
31809;DHT22;18379;48.208;-1.518;2023-10-09T03:58:53;13.80;99.90
31809;DHT22;18379;48.208;-1.518;2023-10-09T04:03:59;13.90;99.90
31809;DHT22;18379;48.208;-1.518;2023-10-09T04:09:09;14.00;99.90
31809;DHT22;18379;48.208;-1.518;2023-10-09T04:14:18;13.90;99.90
31809;DHT22;18379;48.208;-1.518;2023-10-09T04:19:26;13.80;99.90
31809;DHT22;18379;48.208;-1.518;2023-10-09T04:24:27;13.90;99.90
31809;DHT22;18379;48.208;-1.518;2023-10-09T04:29:28;13.90;99.90
31809;DHT22;18379;48.208;-1.518;2023-10-09T04:34:28;13.90;99.90
31809;DHT22;18379;48.208;-1.518;2023-10-09T04:39:29;13.90;99.90
31809;DHT22;18379;48.208;-1.518;2023-10-09T04:44:30;13.90;99.90
31809;DHT22;18379;48.208;-1.518;2023-10-09T04:49:38;13.90;99.90
31809;DHT22;18379;48.208;-1.518;2023-10-09T04:54:57;13.90;99.90
31809;DHT22;18379;48.208;-1.518;2023-10-09T05:05:35;14.10;99.90
31809;DHT22;18379;48.208;-1.518;2023-10-09T05:10:41;14.10;99.90
31809;DHT22;18379;48.208;-1.518;2023-10-09T05:15:54;14.00;99.90
31809;DHT22;18379;48.208;-1.518;2023-10-09T05:20:58;13.80;99.90
31809;DHT22;18379;48.208;-1.518;2023-10-09T05:26:18;13.70;99.90
31809;DHT22;18379;48.208;-1.518;2023-10-09T05:31:51;13.70;99.90
31809;DHT22;18379;48.208;-1.518;2023-10-09T05:37:11;13.80;99.90
31809;DHT22;18379;48.208;-1.518;2023-10-09T05:42:18;13.70;99.90
31809;DHT22;18379;48.208;-1.518;2023-10-09T05:47:18;13.80;99.90
31809;DHT22;18379;48.208;-1.518;2023-10-09T05:52:44;13.90;99.90
31809;DHT22;18379;48.208;-1.518;2023-10-09T05:58:06;13.90;99.90
31809;DHT22;18379;48.208;-1.518;2023-10-09T06:03:10;14.00;99.90
31809;DHT22;18379;48.208;-1.518;2023-10-09T06:08:20;14.10;99.90
31809;DHT22;18379;48.208;-1.518;2023-10-09T06:13:41;14.30;99.90
31809;DHT22;18379;48.208;-1.518;2023-10-09T06:18:47;14.20;99.90
31809;DHT22;18379;48.208;-1.518;2023-10-09T06:24:08;14.30;99.90
31809;DHT22;18379;48.208;-1.518;2023-10-09T06:29:15;14.30;99.90
31809;DHT22;18379;48.208;-1.518;2023-10-09T06:34:16;14.30;99.90
31809;DHT22;18379;48.208;-1.518;2023-10-09T06:39:19;14.30;99.90
31809;DHT22;18379;48.208;-1.518;2023-10-09T06:44:38;14.20;99.90
31809;DHT22;18379;48.208;-1.518;2023-10-09T06:49:54;14.30;99.90
31809;DHT22;18379;48.208;-1.518;2023-10-09T06:55:25;14.40;99.90
31809;DHT22;18379;48.208;-1.518;2023-10-09T07:00:40;14.60;99.90
31809;DHT22;18379;48.208;-1.518;2023-10-09T07:06:11;14.70;99.90
31809;DHT22;18379;48.208;-1.518;2023-10-09T07:11:41;14.70;99.90
31809;DHT22;18379;48.208;-1.518;2023-10-09T07:16:42;14.80;99.90
31809;DHT22;18379;48.208;-1.518;2023-10-09T07:21:57;14.80;99.90
31809;DHT22;18379;48.208;-1.518;2023-10-09T07:27:04;15.00;99.90
31809;DHT22;18379;48.208;-1.518;2023-10-09T07:32:10;15.10;99.90
31809;DHT22;18379;48.208;-1.518;2023-10-09T07:37:24;15.30;99.90
31809;DHT22;18379;48.208;-1.518;2023-10-09T07:42:30;15.50;99.90
31809;DHT22;18379;48.208;-1.518;2023-10-09T07:47:49;15.70;99.90
31809;DHT22;18379;48.208;-1.518;2023-10-09T07:53:06;15.90;99.90
31809;DHT22;18379;48.208;-1.518;2023-10-09T07:58:18;16.20;99.90
31809;DHT22;18379;48.208;-1.518;2023-10-09T08:03:25;16.50;99.90
31809;DHT22;18379;48.208;-1.518;2023-10-09T08:08:26;16.60;99.90
31809;DHT22;18379;48.208;-1.518;2023-10-09T08:13:29;16.80;99.90
31809;DHT22;18379;48.208;-1.518;2023-10-09T08:18:49;16.90;99.90
31809;DHT22;18379;48.208;-1.518;2023-10-09T08:23:51;17.20;99.90
31809;DHT22;18379;48.208;-1.518;2023-10-09T08:28:52;17.30;99.90
31809;DHT22;18379;48.208;-1.518;2023-10-09T08:33:54;17.50;99.90
31809;DHT22;18379;48.208;-1.518;2023-10-09T08:38:58;17.60;99.90
31809;DHT22;18379;48.208;-1.518;2023-10-09T08:44:00;18.10;99.90
31809;DHT22;18379;48.208;-1.518;2023-10-09T08:49:04;18.20;99.90
31809;DHT22;18379;48.208;-1.518;2023-10-09T08:54:07;18.20;99.90
31809;DHT22;18379;48.208;-1.518;2023-10-09T08:59:11;18.20;99.90
31809;DHT22;18379;48.208;-1.518;2023-10-09T09:04:38;18.50;99.90
31809;DHT22;18379;48.208;-1.518;2023-10-09T09:09:57;18.80;99.90
31809;DHT22;18379;48.208;-1.518;2023-10-09T09:15:13;19.20;99.90
31809;DHT22;18379;48.208;-1.518;2023-10-09T09:20:22;19.70;99.90
31809;DHT22;18379;48.208;-1.518;2023-10-09T09:25:24;19.70;99.90
31809;DHT22;18379;48.208;-1.518;2023-10-09T09:30:39;20.10;99.90
31809;DHT22;18379;48.208;-1.518;2023-10-09T09:35:55;20.30;99.90
31809;DHT22;18379;48.208;-1.518;2023-10-09T09:40:57;20.40;99.90
31809;DHT22;18379;48.208;-1.518;2023-10-09T09:46:03;20.80;99.90
31809;DHT22;18379;48.208;-1.518;2023-10-09T09:51:08;21.00;99.90
31809;DHT22;18379;48.208;-1.518;2023-10-09T09:56:09;21.10;99.90
31809;DHT22;18379;48.208;-1.518;2023-10-09T10:01:15;21.10;99.90
31809;DHT22;18379;48.208;-1.518;2023-10-09T10:06:20;21.00;99.90
31809;DHT22;18379;48.208;-1.518;2023-10-09T10:11:45;21.30;99.90
31809;DHT22;18379;48.208;-1.518;2023-10-09T10:17:02;21.70;99.90
31809;DHT22;18379;48.208;-1.518;2023-10-09T10:22:28;22.30;99.90
31809;DHT22;18379;48.208;-1.518;2023-10-09T10:27:30;22.60;99.90
31809;DHT22;18379;48.208;-1.518;2023-10-09T10:37:51;23.70;99.90
31809;DHT22;18379;48.208;-1.518;2023-10-09T10:42:54;24.10;99.90
31809;DHT22;18379;48.208;-1.518;2023-10-09T10:48:14;23.90;99.90
31809;DHT22;18379;48.208;-1.518;2023-10-09T10:53:37;24.50;99.90
31809;DHT22;18379;48.208;-1.518;2023-10-09T10:58:54;24.70;99.90
31809;DHT22;18379;48.208;-1.518;2023-10-09T11:04:12;25.20;99.90
31809;DHT22;18379;48.208;-1.518;2023-10-09T11:09:13;25.60;99.90
31809;DHT22;18379;48.208;-1.518;2023-10-09T11:14:23;25.90;99.90
31809;DHT22;18379;48.208;-1.518;2023-10-09T11:19:25;26.10;99.90
31809;DHT22;18379;48.208;-1.518;2023-10-09T11:24:29;26.20;99.90
31809;DHT22;18379;48.208;-1.518;2023-10-09T11:29:36;26.20;99.90
31809;DHT22;18379;48.208;-1.518;2023-10-09T11:34:49;26.40;99.90
31809;DHT22;18379;48.208;-1.518;2023-10-09T11:39:54;26.40;99.90
31809;DHT22;18379;48.208;-1.518;2023-10-09T11:44:56;26.70;99.90
31809;DHT22;18379;48.208;-1.518;2023-10-09T11:49:57;26.90;99.90
31809;DHT22;18379;48.208;-1.518;2023-10-09T11:55:05;27.10;99.90
31809;DHT22;18379;48.208;-1.518;2023-10-09T12:00:15;27.20;99.90
31809;DHT22;18379;48.208;-1.518;2023-10-09T12:05:33;27.60;99.90
31809;DHT22;18379;48.208;-1.518;2023-10-09T12:10:34;27.80;99.90
31809;DHT22;18379;48.208;-1.518;2023-10-09T12:15:39;27.50;99.90
31809;DHT22;18379;48.208;-1.518;2023-10-09T12:20:41;28.00;99.90
31809;DHT22;18379;48.208;-1.518;2023-10-09T12:25:42;27.70;99.90
31809;DHT22;18379;48.208;-1.518;2023-10-09T12:30:45;28.00;99.90
31809;DHT22;18379;48.208;-1.518;2023-10-09T12:35:50;28.00;99.90
31809;DHT22;18379;48.208;-1.518;2023-10-09T12:40:51;28.30;99.90
31809;DHT22;18379;48.208;-1.518;2023-10-09T12:45:52;28.50;99.90
31809;DHT22;18379;48.208;-1.518;2023-10-09T12:50:57;28.40;99.90
31809;DHT22;18379;48.208;-1.518;2023-10-09T12:55:58;28.70;99.90
31809;DHT22;18379;48.208;-1.518;2023-10-09T13:00:59;29.10;99.90
31809;DHT22;18379;48.208;-1.518;2023-10-09T13:06:09;28.90;99.90
31809;DHT22;18379;48.208;-1.518;2023-10-09T13:11:14;29.00;99.90
31809;DHT22;18379;48.208;-1.518;2023-10-09T13:16:19;29.20;99.90
31809;DHT22;18379;48.208;-1.518;2023-10-09T13:21:28;29.30;99.90
31809;DHT22;18379;48.208;-1.518;2023-10-09T13:26:32;29.10;99.90
31809;DHT22;18379;48.208;-1.518;2023-10-09T13:31:36;29.40;99.90
31809;DHT22;18379;48.208;-1.518;2023-10-09T13:36:38;29.10;99.90
31809;DHT22;18379;48.208;-1.518;2023-10-09T13:41:39;29.10;99.90
31809;DHT22;18379;48.208;-1.518;2023-10-09T13:46:42;29.20;99.90
31809;DHT22;18379;48.208;-1.518;2023-10-09T13:51:43;29.60;99.90
31809;DHT22;18379;48.208;-1.518;2023-10-09T13:56:44;30.00;99.90
31809;DHT22;18379;48.208;-1.518;2023-10-09T14:01:45;30.10;98.70
31809;DHT22;18379;48.208;-1.518;2023-10-09T14:06:49;30.70;97.90
31809;DHT22;18379;48.208;-1.518;2023-10-09T14:11:49;32.00;95.40
31809;DHT22;18379;48.208;-1.518;2023-10-09T14:16:52;32.60;95.60
31809;DHT22;18379;48.208;-1.518;2023-10-09T14:21:57;32.40;89.50
31809;DHT22;18379;48.208;-1.518;2023-10-09T14:26:59;33.00;92.40
31809;DHT22;18379;48.208;-1.518;2023-10-09T14:32:03;33.90;90.90
31809;DHT22;18379;48.208;-1.518;2023-10-09T14:37:04;34.80;92.90
31809;DHT22;18379;48.208;-1.518;2023-10-09T14:42:07;34.60;87.40
31809;DHT22;18379;48.208;-1.518;2023-10-09T14:47:11;35.10;88.60
31809;DHT22;18379;48.208;-1.518;2023-10-09T14:52:15;35.10;87.50
31809;DHT22;18379;48.208;-1.518;2023-10-09T14:57:19;35.30;86.30
31809;DHT22;18379;48.208;-1.518;2023-10-09T15:02:20;35.70;85.00
31809;DHT22;18379;48.208;-1.518;2023-10-09T15:07:24;35.90;79.80
31809;DHT22;18379;48.208;-1.518;2023-10-09T15:12:24;36.10;80.30
31809;DHT22;18379;48.208;-1.518;2023-10-09T15:17:26;35.70;78.30
31809;DHT22;18379;48.208;-1.518;2023-10-09T15:22:26;35.70;74.60
31809;DHT22;18379;48.208;-1.518;2023-10-09T15:27:35;35.70;73.20
31809;DHT22;18379;48.208;-1.518;2023-10-09T15:32:42;35.70;74.20
31809;DHT22;18379;48.208;-1.518;2023-10-09T15:37:43;36.00;71.30
31809;DHT22;18379;48.208;-1.518;2023-10-09T15:42:44;35.70;71.00
31809;DHT22;18379;48.208;-1.518;2023-10-09T15:47:51;35.90;68.80
31809;DHT22;18379;48.208;-1.518;2023-10-09T15:52:53;35.60;67.80
31809;DHT22;18379;48.208;-1.518;2023-10-09T15:57:54;35.70;67.90
31809;DHT22;18379;48.208;-1.518;2023-10-09T16:02:55;35.40;69.90
31809;DHT22;18379;48.208;-1.518;2023-10-09T16:07:57;35.60;69.00
31809;DHT22;18379;48.208;-1.518;2023-10-09T16:12:58;35.20;70.80
31809;DHT22;18379;48.208;-1.518;2023-10-09T16:17:58;35.00;71.00
31809;DHT22;18379;48.208;-1.518;2023-10-09T16:22:59;35.10;71.00
31809;DHT22;18379;48.208;-1.518;2023-10-09T16:28:04;34.90;68.00
31809;DHT22;18379;48.208;-1.518;2023-10-09T16:33:05;34.60;68.80
31809;DHT22;18379;48.208;-1.518;2023-10-09T16:38:06;34.20;72.70
31809;DHT22;18379;48.208;-1.518;2023-10-09T16:43:12;33.90;74.20
31809;DHT22;18379;48.208;-1.518;2023-10-09T16:48:17;33.40;75.40
31809;DHT22;18379;48.208;-1.518;2023-10-09T16:53:18;32.00;73.10
31809;DHT22;18379;48.208;-1.518;2023-10-09T16:58:19;30.40;74.10
31809;DHT22;18379;48.208;-1.518;2023-10-09T17:03:20;28.90;76.80
31809;DHT22;18379;48.208;-1.518;2023-10-09T17:08:24;28.10;78.50
31809;DHT22;18379;48.208;-1.518;2023-10-09T17:13:30;27.50;79.90
31809;DHT22;18379;48.208;-1.518;2023-10-09T17:18:31;26.80;82.00
31809;DHT22;18379;48.208;-1.518;2023-10-09T17:23:32;26.30;82.40
31809;DHT22;18379;48.208;-1.518;2023-10-09T17:28:33;25.70;84.00
31809;DHT22;18379;48.208;-1.518;2023-10-09T17:33:34;25.30;84.90
31809;DHT22;18379;48.208;-1.518;2023-10-09T17:38:34;24.80;84.30
31809;DHT22;18379;48.208;-1.518;2023-10-09T17:43:35;24.40;87.70
31809;DHT22;18379;48.208;-1.518;2023-10-09T17:48:36;23.90;85.50
31809;DHT22;18379;48.208;-1.518;2023-10-09T17:53:37;23.50;87.90
31809;DHT22;18379;48.208;-1.518;2023-10-09T17:58:39;23.30;89.00
31809;DHT22;18379;48.208;-1.518;2023-10-09T18:03:44;23.10;88.20
31809;DHT22;18379;48.208;-1.518;2023-10-09T18:08:45;22.80;90.90
31809;DHT22;18379;48.208;-1.518;2023-10-09T18:13:47;22.60;90.00
31809;DHT22;18379;48.208;-1.518;2023-10-09T18:18:47;22.40;91.80
31809;DHT22;18379;48.208;-1.518;2023-10-09T18:23:49;22.30;90.60
31809;DHT22;18379;48.208;-1.518;2023-10-09T18:28:50;22.00;90.90
31809;DHT22;18379;48.208;-1.518;2023-10-09T18:33:50;21.80;90.40
31809;DHT22;18379;48.208;-1.518;2023-10-09T18:38:53;21.70;91.00
31809;DHT22;18379;48.208;-1.518;2023-10-09T18:43:54;21.30;89.70
31809;DHT22;18379;48.208;-1.518;2023-10-09T18:48:56;21.30;90.20
31809;DHT22;18379;48.208;-1.518;2023-10-09T18:54:02;21.20;91.10
31809;DHT22;18379;48.208;-1.518;2023-10-09T18:59:05;21.10;90.80
31809;DHT22;18379;48.208;-1.518;2023-10-09T19:04:09;21.00;90.10
31809;DHT22;18379;48.208;-1.518;2023-10-09T19:09:09;20.80;90.50
31809;DHT22;18379;48.208;-1.518;2023-10-09T19:14:13;20.60;90.60
31809;DHT22;18379;48.208;-1.518;2023-10-09T19:19:14;20.30;90.90
31809;DHT22;18379;48.208;-1.518;2023-10-09T19:24:15;20.20;91.40
31809;DHT22;18379;48.208;-1.518;2023-10-09T19:29:15;20.00;91.00
31809;DHT22;18379;48.208;-1.518;2023-10-09T19:34:16;19.90;91.20
31809;DHT22;18379;48.208;-1.518;2023-10-09T19:39:17;19.70;91.40
31809;DHT22;18379;48.208;-1.518;2023-10-09T19:44:18;19.60;91.80
31809;DHT22;18379;48.208;-1.518;2023-10-09T19:49:18;19.50;92.10
31809;DHT22;18379;48.208;-1.518;2023-10-09T19:54:19;19.40;92.00
31809;DHT22;18379;48.208;-1.518;2023-10-09T19:59:21;19.30;92.00
31809;DHT22;18379;48.208;-1.518;2023-10-09T20:04:22;19.20;92.90
31809;DHT22;18379;48.208;-1.518;2023-10-09T20:09:26;19.10;92.90
31809;DHT22;18379;48.208;-1.518;2023-10-09T20:14:29;19.10;93.10
31809;DHT22;18379;48.208;-1.518;2023-10-09T20:19:44;19.00;93.70
31809;DHT22;18379;48.208;-1.518;2023-10-09T20:24:45;18.90;93.50
31809;DHT22;18379;48.208;-1.518;2023-10-09T20:29:47;18.90;94.10
31809;DHT22;18379;48.208;-1.518;2023-10-09T20:34:47;18.80;94.20
31809;DHT22;18379;48.208;-1.518;2023-10-09T20:39:50;18.80;95.20
31809;DHT22;18379;48.208;-1.518;2023-10-09T20:44:50;18.70;95.00
31809;DHT22;18379;48.208;-1.518;2023-10-09T20:49:51;18.70;95.40
31809;DHT22;18379;48.208;-1.518;2023-10-09T20:54:52;18.70;95.60
31809;DHT22;18379;48.208;-1.518;2023-10-09T20:59:54;18.70;95.60
31809;DHT22;18379;48.208;-1.518;2023-10-09T21:04:55;18.60;96.00
31809;DHT22;18379;48.208;-1.518;2023-10-09T21:09:55;18.50;96.30
31809;DHT22;18379;48.208;-1.518;2023-10-09T21:14:57;18.50;96.10
31809;DHT22;18379;48.208;-1.518;2023-10-09T21:20:01;18.40;96.60
31809;DHT22;18379;48.208;-1.518;2023-10-09T21:25:02;18.30;96.60
31809;DHT22;18379;48.208;-1.518;2023-10-09T21:30:04;18.20;96.90
31809;DHT22;18379;48.208;-1.518;2023-10-09T21:35:07;18.10;97.20
31809;DHT22;18379;48.208;-1.518;2023-10-09T21:40:08;18.10;97.50
31809;DHT22;18379;48.208;-1.518;2023-10-09T21:45:13;18.00;97.30
31809;DHT22;18379;48.208;-1.518;2023-10-09T21:50:14;17.90;97.60
31809;DHT22;18379;48.208;-1.518;2023-10-09T21:55:16;17.90;97.70
31809;DHT22;18379;48.208;-1.518;2023-10-09T22:00:18;17.70;98.90
31809;DHT22;18379;48.208;-1.518;2023-10-09T22:05:21;17.70;98.40
31809;DHT22;18379;48.208;-1.518;2023-10-09T22:10:23;17.70;98.40
31809;DHT22;18379;48.208;-1.518;2023-10-09T22:15:23;17.60;98.10
31809;DHT22;18379;48.208;-1.518;2023-10-09T22:20:24;17.60;98.60
31809;DHT22;18379;48.208;-1.518;2023-10-09T22:25:25;17.50;98.80
31809;DHT22;18379;48.208;-1.518;2023-10-09T22:30:26;17.40;99.00
31809;DHT22;18379;48.208;-1.518;2023-10-09T22:35:34;17.40;99.50
31809;DHT22;18379;48.208;-1.518;2023-10-09T22:40:36;17.30;99.70
31809;DHT22;18379;48.208;-1.518;2023-10-09T22:45:40;17.20;99.20
31809;DHT22;18379;48.208;-1.518;2023-10-09T22:50:49;17.20;99.20
31809;DHT22;18379;48.208;-1.518;2023-10-09T22:55:59;17.10;99.50
31809;DHT22;18379;48.208;-1.518;2023-10-09T23:01:02;17.10;99.00
31809;DHT22;18379;48.208;-1.518;2023-10-09T23:06:03;17.00;99.90
31809;DHT22;18379;48.208;-1.518;2023-10-09T23:11:16;17.00;99.60
31809;DHT22;18379;48.208;-1.518;2023-10-09T23:16:26;17.00;99.80
31809;DHT22;18379;48.208;-1.518;2023-10-09T23:21:34;16.90;99.90
31809;DHT22;18379;48.208;-1.518;2023-10-09T23:26:55;16.80;99.90
31809;DHT22;18379;48.208;-1.518;2023-10-09T23:31:57;16.70;99.90
31809;DHT22;18379;48.208;-1.518;2023-10-09T23:37:20;16.80;99.90
31809;DHT22;18379;48.208;-1.518;2023-10-09T23:42:33;16.70;99.90
31809;DHT22;18379;48.208;-1.518;2023-10-09T23:47:38;16.60;99.90
31809;DHT22;18379;48.208;-1.518;2023-10-09T23:52:41;16.60;99.90
31809;DHT22;18379;48.208;-1.518;2023-10-09T23:57:45;16.60;99.90
